Terminal Aerodrome Forecast
Issued by NWS

Home | Current Version | Previous Version | Text Only | Print | Product List | Glossary On
Versions: 1 2 3 4 5 6 7 8 9 10 11 12 13 14 15 16 17 18 19 20 21 22 23 24 25 26 27 28 29 30 31 32 33 34 35 36 37 38
554
FTUS43 KDLH 131454 AAB
TAFBRD
TAF AMD
KBRD 131454Z 1315/1412 14004KT 3SM -SN OVC009
     FM131700 16006KT 2SM -SN OVC014
     FM132200 17004KT 4SM -SN OVC015
     FM140200 28004KT 6SM -SN OVC012
     FM140700 32008KT P6SM BKN015=

USA.gov is the U.S. government's official web portal to all federal, state and local government web resources and services.